createdAt,value
2018-02-21T00:00:05.663Z,86.10
2018-02-21T00:00:44.657Z,88.00
2018-02-21T00:01:44.634Z,84.90
2018-02-21T00:02:44.661Z,87.10
2018-02-21T00:03:44.661Z,92.00
2018-02-21T00:04:44.676Z,85.80
2018-02-21T00:06:05.716Z,85.50
2018-02-21T00:06:44.708Z,87.50
2018-02-21T00:07:44.714Z,91.90
2018-02-21T00:08:44.731Z,87.80
2018-02-21T00:09:44.737Z,86.80
2018-02-21T00:10:44.735Z,87.10
2018-02-21T00:12:05.796Z,84.10
2018-02-21T00:12:44.764Z,91.50
2018-02-21T00:13:44.837Z,89.20
2018-02-21T00:14:44.789Z,84.90
2018-02-21T00:15:44.845Z,89.70
2018-02-21T00:16:44.824Z,90.60
2018-02-21T00:18:05.839Z,90.70
2018-02-21T00:18:44.850Z,90.90
2018-02-21T00:19:44.851Z,89.50
2018-02-21T00:20:44.858Z,85.60
2018-02-21T00:21:44.925Z,93.30
2018-02-21T00:22:44.908Z,87.50
2018-02-21T00:24:05.897Z,90.20
2018-02-21T00:24:44.923Z,91.70
2018-02-21T00:25:44.936Z,88.70
2018-02-21T00:26:45.008Z,92.60
2018-02-21T00:27:44.944Z,90.50
2018-02-21T00:28:44.978Z,91.20
2018-02-21T00:30:05.979Z,91.90
2018-02-21T00:30:45.012Z,92.80
2018-02-21T00:31:45.008Z,91.40
2018-02-21T00:32:45.079Z,90.40
2018-02-21T00:33:45.018Z,93.00
2018-02-21T00:34:45.075Z,94.30
2018-02-21T00:36:06.055Z,85.90
2018-02-21T00:36:45.104Z,91.60
2018-02-21T00:37:45.092Z,93.60
2018-02-21T00:38:45.109Z,95.00
2018-02-21T00:39:45.124Z,92.40
2018-02-21T00:40:45.148Z,91.70
2018-02-21T00:42:06.134Z,94.10
2018-02-21T00:42:45.150Z,91.40
2018-02-21T00:43:45.163Z,93.50
2018-02-21T00:44:45.234Z,95.40
2018-02-21T00:45:45.163Z,91.00
2018-02-21T00:46:45.173Z,88.70
2018-02-21T00:48:06.193Z,92.70
2018-02-21T00:48:45.197Z,95.10
2018-02-21T00:49:45.214Z,94.70
2018-02-21T00:50:45.255Z,93.20
2018-02-21T00:51:45.236Z,94.70
2018-02-21T00:52:45.235Z,93.10
2018-02-21T00:54:06.271Z,93.70
2018-02-21T00:54:45.295Z,94.80
2018-02-21T00:55:45.428Z,99.10
2018-02-21T00:56:45.333Z,91.60
2018-02-21T00:57:45.343Z,94.90
2018-02-21T00:58:45.332Z,93.70
2018-02-21T01:00:06.352Z,96.00
2018-02-21T01:00:45.348Z,94.80
2018-02-21T01:01:45.356Z,94.20
2018-02-21T01:02:45.374Z,94.10
2018-02-21T01:03:45.394Z,101.90
2018-02-21T01:04:45.406Z,99.00
2018-02-21T01:06:06.441Z,96.80
2018-02-21T01:06:45.436Z,97.00
2018-02-21T01:07:45.448Z,95.80
2018-02-21T01:08:45.478Z,97.50
2018-02-21T01:09:45.447Z,91.90
2018-02-21T01:10:45.474Z,98.80
2018-02-21T01:12:06.487Z,96.70
2018-02-21T01:12:45.498Z,99.30
2018-02-21T01:13:45.556Z,96.40
2018-02-21T01:14:45.513Z,97.40
2018-02-21T01:15:45.536Z,97.70
2018-02-21T01:16:45.536Z,98.40
2018-02-21T01:18:06.586Z,96.70
2018-02-21T01:18:45.579Z,99.50
2018-02-21T01:19:45.629Z,99.30
2018-02-21T01:20:45.584Z,100.60
2018-02-21T01:21:45.592Z,99.50
2018-02-21T01:22:45.619Z,97.60
2018-02-21T01:24:06.690Z,101.30
2018-02-21T01:24:45.660Z,105.20
2018-02-21T01:25:45.666Z,97.50
2018-02-21T01:26:45.655Z,99.20
2018-02-21T01:27:45.715Z,100.80
2018-02-21T01:28:45.668Z,96.10
2018-02-21T01:30:06.723Z,100.60
2018-02-21T01:30:45.710Z,99.20
2018-02-21T01:31:45.726Z,101.10
2018-02-21T01:32:45.774Z,103.50
2018-02-21T01:33:45.793Z,97.00
2018-02-21T01:34:45.747Z,96.70
2018-02-21T01:36:06.786Z,102.70
2018-02-21T01:36:45.777Z,97.90
2018-02-21T01:37:45.789Z,98.70
2018-02-21T01:38:45.817Z,102.70
2018-02-21T01:39:45.813Z,105.40
2018-02-21T01:40:45.880Z,99.90
2018-02-21T01:42:06.857Z,101.60
2018-02-21T01:42:45.850Z,101.10
2018-02-21T01:43:45.882Z,101.80
2018-02-21T01:44:45.899Z,99.10
2018-02-21T01:45:45.884Z,101.00
2018-02-21T01:46:45.933Z,97.00
2018-02-21T01:48:06.930Z,96.70
2018-02-21T01:48:46.009Z,102.70
2018-02-21T01:49:45.948Z,97.50
2018-02-21T01:50:45.953Z,106.70
2018-02-21T01:51:46.023Z,100.40
2018-02-21T01:52:45.969Z,106.50
2018-02-21T01:54:07.017Z,101.10
2018-02-21T01:54:46.041Z,102.30
2018-02-21T01:55:45.993Z,101.00
2018-02-21T01:56:46.035Z,101.90
2018-02-21T01:57:46.034Z,102.00
2018-02-21T01:58:46.052Z,103.00
2018-02-21T02:00:07.131Z,103.00
2018-02-21T02:00:46.058Z,103.10
2018-02-21T02:01:46.197Z,101.80
2018-02-21T02:02:46.093Z,101.80
2018-02-21T02:03:46.112Z,100.10
2018-02-21T02:04:46.143Z,103.30
2018-02-21T02:06:07.204Z,99.20
2018-02-21T02:06:46.129Z,97.50
2018-02-21T02:07:46.212Z,105.70
2018-02-21T02:08:46.184Z,103.70
2018-02-21T02:09:46.181Z,103.40
2018-02-21T02:10:46.209Z,105.40
2018-02-21T02:12:07.247Z,102.00
2018-02-21T02:12:46.265Z,101.90
2018-02-21T02:13:46.274Z,102.10
2018-02-21T02:14:46.276Z,98.40
2018-02-21T02:15:46.266Z,99.40
2018-02-21T02:16:46.271Z,103.30
2018-02-21T02:18:07.303Z,100.90
2018-02-21T02:18:46.273Z,105.50
2018-02-21T02:19:46.287Z,97.80
2018-02-21T02:20:46.345Z,102.30
2018-02-21T02:21:46.316Z,100.30
2018-02-21T02:22:46.324Z,102.30
2018-02-21T02:24:07.383Z,99.30
2018-02-21T02:24:46.349Z,102.80
2018-02-21T02:25:46.395Z,99.10
2018-02-21T02:26:46.389Z,98.70
2018-02-21T02:27:46.466Z,99.80
2018-02-21T02:28:46.498Z,101.20
2018-02-21T02:30:07.435Z,101.00
2018-02-21T02:30:46.461Z,101.50
2018-02-21T02:31:46.469Z,100.50
2018-02-21T02:32:46.454Z,106.80
2018-02-21T02:33:46.468Z,99.60
2018-02-21T02:34:46.494Z,100.00
2018-02-21T02:36:07.515Z,98.20
2018-02-21T02:36:46.518Z,99.50
2018-02-21T02:37:46.538Z,103.90
2018-02-21T02:38:46.634Z,98.60
2018-02-21T02:39:46.532Z,100.10
2018-02-21T02:40:46.547Z,100.00
2018-02-21T02:42:07.573Z,97.60
2018-02-21T02:42:46.582Z,97.60
2018-02-21T02:43:46.612Z,97.10
2018-02-21T02:44:46.604Z,99.20
2018-02-21T02:45:46.617Z,97.50
2018-02-21T02:46:46.641Z,102.80
2018-02-21T02:48:07.649Z,98.80
2018-02-21T02:48:46.632Z,93.80
2018-02-21T02:49:46.709Z,101.80
2018-02-21T02:50:46.669Z,99.60
2018-02-21T02:51:46.690Z,101.90
2018-02-21T02:52:46.690Z,101.00
2018-02-21T02:54:07.721Z,102.10
2018-02-21T02:54:46.754Z,101.40
2018-02-21T02:55:46.737Z,97.60
2018-02-21T02:56:46.743Z,103.50
2018-02-21T02:57:46.837Z,98.10
2018-02-21T02:58:46.767Z,98.80
2018-02-21T03:00:07.795Z,104.70
2018-02-21T03:00:46.772Z,104.50
2018-02-21T03:01:46.790Z,104.30
2018-02-21T03:02:46.888Z,105.20
2018-02-21T03:03:46.826Z,97.50
2018-02-21T03:04:46.930Z,102.00
2018-02-21T03:06:07.865Z,103.20
2018-02-21T03:06:46.848Z,100.50
2018-02-21T03:07:46.855Z,100.40
2018-02-21T03:08:46.871Z,102.30
2018-02-21T03:09:46.903Z,100.80
2018-02-21T03:10:46.951Z,101.10
2018-02-21T03:12:07.944Z,102.70
2018-02-21T03:12:46.949Z,102.70
2018-02-21T03:13:46.940Z,108.30
2018-02-21T03:14:46.954Z,104.30
2018-02-21T03:15:46.977Z,99.50
2018-02-21T03:16:46.980Z,102.70
2018-02-21T03:18:08.022Z,108.00
2018-02-21T03:18:47.003Z,101.10
2018-02-21T03:19:47.031Z,105.00
2018-02-21T03:20:47.010Z,104.50
2018-02-21T03:21:47.023Z,101.50
2018-02-21T03:22:47.050Z,104.80
2018-02-21T03:24:08.067Z,98.00
2018-02-21T03:24:47.075Z,104.00
2018-02-21T03:25:47.175Z,97.60
2018-02-21T03:26:47.091Z,107.40
2018-02-21T03:27:47.122Z,100.30
2018-02-21T03:28:47.132Z,101.50
2018-02-21T03:30:08.169Z,106.00
2018-02-21T03:30:47.147Z,103.60
2018-02-21T03:31:47.188Z,104.90
2018-02-21T03:32:47.160Z,105.40
2018-02-21T03:33:47.173Z,106.90
2018-02-21T03:34:47.175Z,110.00
2018-02-21T03:36:08.274Z,104.50
2018-02-21T03:36:47.223Z,106.60
2018-02-21T03:37:47.286Z,105.70
2018-02-21T03:38:47.260Z,106.30
2018-02-21T03:39:47.269Z,104.70
2018-02-21T03:40:47.259Z,104.10
2018-02-21T03:42:08.283Z,105.00
2018-02-21T03:42:47.278Z,105.60
2018-02-21T03:43:47.304Z,105.60
2018-02-21T03:44:47.313Z,106.00
2018-02-21T03:45:47.317Z,106.20
2018-02-21T03:46:47.318Z,104.30
2018-02-21T03:48:08.374Z,101.90
2018-02-21T03:48:47.448Z,104.70
2018-02-21T03:49:47.364Z,106.50
2018-02-21T03:50:47.382Z,108.10
2018-02-21T03:51:47.380Z,108.70
2018-02-21T03:52:47.411Z,108.90
2018-02-21T03:54:08.438Z,110.60
2018-02-21T03:54:47.415Z,105.90
2018-02-21T03:55:47.435Z,109.10
2018-02-21T03:56:47.462Z,107.20
2018-02-21T03:57:47.470Z,103.80
2018-02-21T03:58:47.522Z,104.90
2018-02-21T04:00:08.496Z,104.40
2018-02-21T04:00:47.600Z,107.70
2018-02-21T04:01:47.499Z,106.10
2018-02-21T04:02:47.515Z,109.60
2018-02-21T04:03:47.561Z,109.50
2018-02-21T04:04:47.555Z,107.20
2018-02-21T04:06:08.569Z,107.60
2018-02-21T04:06:47.578Z,110.30
2018-02-21T04:07:47.577Z,108.10
2018-02-21T04:08:47.576Z,111.10
2018-02-21T04:09:47.607Z,113.80
2018-02-21T04:10:47.629Z,116.90
2018-02-21T04:12:08.694Z,109.20
2018-02-21T04:12:47.633Z,107.80
2018-02-21T04:13:47.682Z,106.30
2018-02-21T04:14:47.656Z,112.50
2018-02-21T04:15:47.677Z,109.30
2018-02-21T04:16:47.676Z,112.20
2018-02-21T04:18:08.735Z,114.50
2018-02-21T04:18:47.800Z,108.00
2018-02-21T04:19:47.751Z,109.20
2018-02-21T04:20:47.722Z,112.40
2018-02-21T04:21:47.729Z,111.50
2018-02-21T04:22:47.773Z,112.80
2018-02-21T04:24:08.857Z,115.50
2018-02-21T04:24:48.045Z,115.90
2018-02-21T04:25:47.852Z,114.00
2018-02-21T04:26:47.833Z,115.50
2018-02-21T04:27:47.876Z,112.70
2018-02-21T04:28:47.840Z,114.20
2018-02-21T04:30:08.892Z,115.90
2018-02-21T04:30:47.845Z,114.80
2018-02-21T04:31:47.861Z,117.50
2018-02-21T04:32:47.933Z,119.50
2018-02-21T04:33:47.876Z,114.60
2018-02-21T04:34:47.904Z,117.80
2018-02-21T04:36:08.916Z,111.00
2018-02-21T04:36:47.922Z,118.00
2018-02-21T04:37:47.938Z,115.30
2018-02-21T04:38:47.988Z,112.40
2018-02-21T04:39:47.946Z,112.10
2018-02-21T04:40:47.988Z,116.30
2018-02-21T04:42:08.988Z,119.20
2018-02-21T04:42:48.004Z,114.90
2018-02-21T04:43:48.057Z,120.40
2018-02-21T04:44:48.014Z,116.90
2018-02-21T04:45:48.033Z,115.80
2018-02-21T04:46:48.029Z,119.10
2018-02-21T04:48:09.092Z,111.50
2018-02-21T04:48:48.051Z,119.90
2018-02-21T04:49:48.291Z,113.20
2018-02-21T04:50:48.074Z,116.10
2018-02-21T04:51:48.097Z,118.60
2018-02-21T04:52:48.148Z,117.60
2018-02-21T04:54:09.194Z,121.80
2018-02-21T04:54:48.144Z,120.10
2018-02-21T04:55:48.208Z,117.00
2018-02-21T04:56:48.198Z,122.40
2018-02-21T04:57:48.180Z,123.30
2018-02-21T04:58:48.179Z,116.90
2018-02-21T05:00:09.216Z,113.30
2018-02-21T05:00:48.187Z,117.60
2018-02-21T05:01:48.239Z,117.00
2018-02-21T05:02:48.305Z,119.40
2018-02-21T05:03:48.247Z,118.00
2018-02-21T05:04:48.250Z,123.50
2018-02-21T05:06:09.265Z,123.20
2018-02-21T05:06:48.276Z,118.50
2018-02-21T05:07:48.291Z,119.80
2018-02-21T05:08:48.341Z,119.40
2018-02-21T05:09:48.351Z,118.20
2018-02-21T05:10:48.351Z,117.30
2018-02-21T05:12:09.335Z,122.30
2018-02-21T05:12:48.379Z,119.50
2018-02-21T05:13:48.361Z,126.30
2018-02-21T05:14:48.383Z,119.60
2018-02-21T05:15:48.422Z,119.40
2018-02-21T05:16:48.396Z,124.50
2018-02-21T05:18:09.426Z,123.00
2018-02-21T05:18:48.465Z,125.50
2018-02-21T05:19:48.436Z,117.10
2018-02-21T05:20:48.451Z,122.90
2018-02-21T05:21:48.506Z,124.30
2018-02-21T05:22:48.465Z,120.40
2018-02-21T05:24:09.482Z,121.80
2018-02-21T05:24:48.479Z,122.50
2018-02-21T05:25:48.485Z,122.60
2018-02-21T05:26:48.528Z,119.70
2018-02-21T05:27:48.528Z,124.20
2018-02-21T05:28:48.544Z,125.60
2018-02-21T05:30:09.605Z,123.90
2018-02-21T05:30:48.594Z,126.30
2018-02-21T05:31:48.586Z,127.30
2018-02-21T05:32:48.569Z,124.40
2018-02-21T05:33:48.593Z,129.40
2018-02-21T05:34:48.615Z,130.60
2018-02-21T05:36:09.619Z,127.70
2018-02-21T05:36:48.628Z,129.90
2018-02-21T05:37:48.648Z,129.00
2018-02-21T05:38:48.680Z,131.50
2018-02-21T05:39:48.641Z,127.50
2018-02-21T05:40:48.707Z,128.40
2018-02-21T05:42:09.781Z,123.10
2018-02-21T05:42:48.685Z,123.80
2018-02-21T05:43:48.704Z,122.70
2018-02-21T05:44:48.726Z,128.00
2018-02-21T05:45:48.770Z,132.00
2018-02-21T05:46:48.744Z,120.60
2018-02-21T05:48:09.762Z,125.40
2018-02-21T05:48:48.839Z,127.40
2018-02-21T05:49:48.771Z,130.10
2018-02-21T05:50:48.803Z,126.30
2018-02-21T05:51:48.840Z,129.00
2018-02-21T05:52:48.870Z,125.70
2018-02-21T05:54:09.835Z,123.80
2018-02-21T05:54:48.831Z,128.70
2018-02-21T05:55:48.833Z,125.10
2018-02-21T05:56:48.860Z,125.00
2018-02-21T05:57:48.895Z,130.30
2018-02-21T05:58:48.918Z,123.70
2018-02-21T06:00:09.983Z,121.70
2018-02-21T06:00:48.936Z,123.80
2018-02-21T06:01:48.905Z,124.80
2018-02-21T06:02:48.914Z,124.10
2018-02-21T06:03:48.933Z,116.60
2018-02-21T06:04:48.980Z,120.80
2018-02-21T06:06:10.044Z,124.70
2018-02-21T06:06:49.012Z,126.90
2018-02-21T06:07:48.989Z,124.90
2018-02-21T06:08:48.994Z,118.90
2018-02-21T06:09:49.007Z,121.00
2018-02-21T06:10:49.072Z,126.70
2018-02-21T06:12:10.039Z,119.60
2018-02-21T06:12:49.091Z,123.20
2018-02-21T06:13:49.052Z,117.60
2018-02-21T06:14:49.078Z,118.50
2018-02-21T06:15:49.072Z,120.70
2018-02-21T06:16:49.077Z,122.20
2018-02-21T06:18:10.109Z,117.40
2018-02-21T06:18:49.159Z,117.70
2018-02-21T06:19:49.139Z,118.40
2018-02-21T06:20:49.258Z,123.70
2018-02-21T06:21:49.141Z,122.60
2018-02-21T06:22:49.166Z,120.10
2018-02-21T06:24:10.192Z,119.70
2018-02-21T06:24:49.174Z,123.30
2018-02-21T06:25:49.255Z,119.90
2018-02-21T06:26:49.243Z,124.90
2018-02-21T06:27:49.269Z,123.30
2018-02-21T06:28:49.308Z,123.40
2018-02-21T06:30:10.292Z,119.20
2018-02-21T06:30:49.303Z,124.30
2018-02-21T06:31:49.287Z,124.50
2018-02-21T06:32:49.376Z,118.00
2018-02-21T06:33:49.361Z,122.90
2018-02-21T06:34:49.319Z,119.40
2018-02-21T06:36:10.334Z,118.20
2018-02-21T06:36:49.332Z,121.00
2018-02-21T06:37:49.355Z,119.80
2018-02-21T06:38:49.369Z,117.80
2018-02-21T06:39:49.366Z,118.00
2018-02-21T06:40:49.401Z,118.80
2018-02-21T06:42:10.396Z,117.40
2018-02-21T06:42:49.438Z,118.70
2018-02-21T06:43:49.508Z,123.90
2018-02-21T06:44:49.419Z,118.50
2018-02-21T06:45:49.443Z,111.90
2018-02-21T06:46:49.483Z,122.70
2018-02-21T06:48:10.538Z,115.10
2018-02-21T06:48:49.498Z,116.40
2018-02-21T06:49:49.527Z,120.70
2018-02-21T06:50:49.536Z,118.80
2018-02-21T06:51:49.598Z,111.10
2018-02-21T06:52:49.546Z,118.80
2018-02-21T06:54:10.568Z,115.20
2018-02-21T06:54:49.594Z,118.10
2018-02-21T06:55:49.577Z,115.90
2018-02-21T06:56:49.625Z,118.80
2018-02-21T06:57:49.609Z,117.00
2018-02-21T06:58:49.610Z,115.50
2018-02-21T07:00:10.623Z,121.00
2018-02-21T07:00:49.642Z,117.60
2018-02-21T07:01:49.700Z,120.10
2018-02-21T07:02:49.674Z,122.00
2018-02-21T07:03:49.668Z,122.60
2018-02-21T07:04:49.721Z,118.50
2018-02-21T07:06:10.709Z,119.60
2018-02-21T07:06:49.711Z,116.80
2018-02-21T07:07:49.727Z,121.60
2018-02-21T07:08:49.800Z,119.80
2018-02-21T07:09:49.754Z,124.80
2018-02-21T07:10:49.803Z,118.10
2018-02-21T07:12:10.854Z,120.70
2018-02-21T07:12:49.779Z,120.60
2018-02-21T07:13:49.789Z,122.60
2018-02-21T07:14:49.832Z,122.70
2018-02-21T07:15:49.855Z,118.50
2018-02-21T07:16:49.837Z,122.10
2018-02-21T07:18:10.861Z,124.50
2018-02-21T07:18:49.897Z,121.80
2018-02-21T07:19:49.876Z,122.90
2018-02-21T07:20:49.908Z,121.30
2018-02-21T07:21:49.903Z,121.70
2018-02-21T07:22:49.916Z,125.20
2018-02-21T07:24:10.971Z,125.70
2018-02-21T07:24:49.943Z,121.30
2018-02-21T07:25:50.037Z,120.40
2018-02-21T07:26:49.960Z,125.10
2018-02-21T07:27:49.978Z,124.40
2018-02-21T07:28:50.043Z,123.80
2018-02-21T07:30:11.023Z,128.20
2018-02-21T07:30:50.012Z,124.80
2018-02-21T07:31:50.042Z,123.00
2018-02-21T07:32:50.057Z,117.00
2018-02-21T07:33:50.076Z,119.60
2018-02-21T07:34:50.055Z,121.80
2018-02-21T07:36:11.089Z,120.00
2018-02-21T07:36:50.082Z,124.40
2018-02-21T07:37:50.108Z,125.10
2018-02-21T07:38:50.113Z,123.80
2018-02-21T07:39:50.432Z,118.10
2018-02-21T07:40:50.130Z,121.70
2018-02-21T07:42:11.172Z,120.50
2018-02-21T07:42:50.171Z,123.30
2018-02-21T07:43:50.172Z,123.10
2018-02-21T07:44:50.218Z,121.40
2018-02-21T07:45:50.198Z,125.90
2018-02-21T07:46:50.526Z,121.60
2018-02-21T07:48:11.246Z,116.90
2018-02-21T07:48:50.241Z,122.20
2018-02-21T07:49:50.269Z,118.50
2018-02-21T07:50:50.280Z,119.00
2018-02-21T07:51:50.282Z,121.50
2018-02-21T07:52:50.294Z,119.60
2018-02-21T07:54:11.344Z,126.60
2018-02-21T07:54:50.327Z,121.60
2018-02-21T07:55:50.401Z,122.30
2018-02-21T07:56:50.357Z,118.40
2018-02-21T07:57:50.409Z,116.10
2018-02-21T07:58:50.435Z,121.60
2018-02-21T08:00:11.394Z,122.80
2018-02-21T08:00:50.406Z,117.40
2018-02-21T08:01:50.432Z,121.80
2018-02-21T08:02:50.512Z,118.70
2018-02-21T08:03:50.734Z,120.00
2018-02-21T08:04:50.472Z,118.80
2018-02-21T08:06:11.470Z,123.30
2018-02-21T08:06:50.460Z,114.90
2018-02-21T08:07:50.499Z,120.00
2018-02-21T08:08:50.737Z,122.20
2018-02-21T08:09:50.523Z,119.80
2018-02-21T08:10:50.506Z,118.80
2018-02-21T08:12:11.586Z,115.50
2018-02-21T08:12:50.550Z,115.80
2018-02-21T08:13:50.554Z,120.50
2018-02-21T08:14:50.581Z,122.90
2018-02-21T08:15:50.595Z,114.70
2018-02-21T08:16:50.615Z,116.80
2018-02-21T08:18:11.615Z,125.70
2018-02-21T08:18:50.630Z,116.20
2018-02-21T08:19:50.640Z,116.40
2018-02-21T08:20:50.651Z,116.30
2018-02-21T08:21:50.702Z,115.60
2018-02-21T08:22:50.662Z,115.60
2018-02-21T08:24:11.696Z,118.60
2018-02-21T08:24:50.703Z,115.20
2018-02-21T08:25:50.703Z,120.70
2018-02-21T08:26:50.747Z,121.00
2018-02-21T08:27:50.826Z,117.40
2018-02-21T08:28:50.765Z,123.80
2018-02-21T08:30:11.774Z,118.30
2018-02-21T08:30:50.775Z,114.50
2018-02-21T08:31:50.805Z,114.10
2018-02-21T08:32:50.798Z,113.20
2018-02-21T08:33:50.820Z,113.80
2018-02-21T08:34:50.859Z,113.10
2018-02-21T08:36:11.845Z,113.70
2018-02-21T08:36:50.841Z,117.70
2018-02-21T08:37:51.056Z,117.60
2018-02-21T08:38:50.870Z,116.70
2018-02-21T08:39:51.125Z,112.80
2018-02-21T08:40:50.952Z,118.90
2018-02-21T08:42:11.925Z,110.30
2018-02-21T08:42:50.920Z,108.40
2018-02-21T08:43:50.987Z,115.90
2018-02-21T08:44:50.944Z,114.90
2018-02-21T08:45:50.976Z,114.50
2018-02-21T08:46:50.977Z,110.80
2018-02-21T08:48:12.011Z,109.30
2018-02-21T08:48:51.063Z,113.50
2018-02-21T08:49:51.026Z,111.00
2018-02-21T08:50:51.072Z,111.70
2018-02-21T08:51:51.103Z,109.40
2018-02-21T08:52:51.049Z,111.50
2018-02-21T08:54:12.085Z,114.20
2018-02-21T08:54:51.106Z,110.00
2018-02-21T08:55:51.126Z,107.70
2018-02-21T08:56:51.554Z,109.00
2018-02-21T08:57:51.157Z,110.60
2018-02-21T08:58:51.157Z,106.60
2018-02-21T09:00:12.171Z,110.10
2018-02-21T09:00:51.180Z,105.40
2018-02-21T09:01:51.442Z,109.80
2018-02-21T09:02:51.214Z,110.00
2018-02-21T09:03:51.204Z,107.10
2018-02-21T09:04:51.271Z,108.50
2018-02-21T09:06:12.270Z,107.70
2018-02-21T09:06:51.286Z,102.40
2018-02-21T09:07:51.365Z,106.30
2018-02-21T09:08:51.283Z,110.10
2018-02-21T09:09:51.345Z,104.40
2018-02-21T09:10:51.337Z,106.20
2018-02-21T09:12:12.416Z,107.30
2018-02-21T09:12:51.799Z,108.30
2018-02-21T09:13:51.906Z,109.70
2018-02-21T09:14:51.959Z,109.20
2018-02-21T09:15:51.696Z,106.40
2018-02-21T09:16:51.854Z,109.00
2018-02-21T09:18:12.877Z,106.30
2018-02-21T09:18:51.838Z,108.90
2018-02-21T09:19:51.876Z,109.00
2018-02-21T09:20:51.909Z,111.90
2018-02-21T09:22:03.719Z,111.30
2018-02-21T09:22:52.048Z,111.40
2018-02-21T09:24:12.860Z,112.10
2018-02-21T09:24:51.840Z,112.90
2018-02-21T09:25:51.838Z,107.80
2018-02-21T09:26:51.818Z,114.30
2018-02-21T09:27:51.918Z,109.70
2018-02-21T09:28:51.798Z,103.50
2018-02-21T09:30:12.993Z,109.10
2018-02-21T09:30:51.645Z,111.50
2018-02-21T09:31:51.948Z,106.10
2018-02-21T09:32:53.587Z,109.10
2018-02-21T09:33:52.113Z,106.60
2018-02-21T09:34:51.974Z,108.70
2018-02-21T09:36:15.029Z,108.90
2018-02-21T09:36:52.105Z,109.60
2018-02-21T09:37:52.012Z,105.40
2018-02-21T09:38:52.037Z,112.20
2018-02-21T09:39:52.014Z,113.70
2018-02-21T09:40:55.550Z,108.90
2018-02-21T09:42:13.114Z,105.90
2018-02-21T09:42:52.026Z,107.30
2018-02-21T09:44:52.792Z,104.40
2018-02-21T09:45:54.059Z,106.40
2018-02-21T09:46:53.285Z,105.10
2018-02-21T09:48:12.884Z,107.10
2018-02-21T09:48:51.909Z,103.30
2018-02-21T09:49:52.782Z,102.30
2018-02-21T09:50:52.034Z,102.30
2018-02-21T09:51:51.876Z,104.10
2018-02-21T09:52:52.143Z,100.00
2018-02-21T09:54:12.922Z,102.80
2018-02-21T09:54:51.915Z,101.10
2018-02-21T09:55:52.005Z,106.50
2018-02-21T09:58:54.184Z,98.10
